createdAt,value
2019-04-04T00:01:36.639Z,8.48
2019-04-04T00:04:05.492Z,8.48
2019-04-04T00:06:34.415Z,9.07
2019-04-04T00:09:04.843Z,9.28
2019-04-04T00:11:35.069Z,9.91
2019-04-04T00:14:04.536Z,9.91
2019-04-04T00:16:33.423Z,9.02
2019-04-04T00:19:02.312Z,9.90
2019-04-04T00:21:32.047Z,9.89
2019-04-04T00:24:02.064Z,9.64
2019-04-04T00:26:30.916Z,9.33
2019-04-04T00:29:01.340Z,9.27
2019-04-04T00:31:30.504Z,9.27
2019-04-04T00:33:59.371Z,9.89
2019-04-04T00:36:28.399Z,10.20
2019-04-04T00:38:57.262Z,10.20
2019-04-04T00:41:26.144Z,10.41
2019-04-04T00:43:55.064Z,10.32
2019-04-04T00:46:23.928Z,9.83
2019-04-04T00:48:52.542Z,9.83
2019-04-04T00:51:21.217Z,9.85
2019-04-04T00:53:49.877Z,9.32
2019-04-04T00:56:18.811Z,9.32
2019-04-04T00:58:47.633Z,10.03
2019-04-04T01:01:16.740Z,10.42
2019-04-04T01:03:45.311Z,10.43
2019-04-04T01:06:13.987Z,10.69
2019-04-04T01:08:42.551Z,10.69
2019-04-04T01:11:11.207Z,10.54
2019-04-04T01:13:39.864Z,10.58
2019-04-04T01:16:08.511Z,10.58
2019-04-04T01:18:37.580Z,10.36
2019-04-04T01:21:06.389Z,10.11
2019-04-04T01:23:35.026Z,10.06
2019-04-04T01:26:04.117Z,10.06
2019-04-04T01:28:32.807Z,10.14
2019-04-04T01:31:01.445Z,9.91
2019-04-04T01:33:30.087Z,9.83
2019-04-04T01:35:58.748Z,9.77
2019-04-04T01:38:29.094Z,9.77
2019-04-04T01:40:57.734Z,9.95
2019-04-04T01:43:26.406Z,9.98
2019-04-04T01:45:55.037Z,10.12
2019-04-04T01:48:23.712Z,10.12
2019-04-04T01:50:53.781Z,10.18
2019-04-04T01:53:22.880Z,9.95
2019-04-04T01:55:51.520Z,9.57
2019-04-04T01:58:20.194Z,9.57
2019-04-04T02:00:48.895Z,9.44
2019-04-04T02:03:17.542Z,9.44
2019-04-04T02:05:46.211Z,9.08
2019-04-04T02:08:14.845Z,8.69
2019-04-04T02:10:43.477Z,8.22
2019-04-04T02:13:12.138Z,8.76
2019-04-04T02:15:40.837Z,8.90
2019-04-04T02:18:09.479Z,8.78
2019-04-04T02:20:38.307Z,9.17
2019-04-04T02:23:07.015Z,8.53
2019-04-04T02:25:35.648Z,8.82
2019-04-04T02:28:04.315Z,8.73
2019-04-04T02:30:33.018Z,8.10
2019-04-04T02:33:01.646Z,8.80
2019-04-04T02:35:30.311Z,9.09
2019-04-04T02:37:58.933Z,8.79
2019-04-04T02:40:27.572Z,8.82
2019-04-04T02:42:56.374Z,8.51
2019-04-04T02:45:25.025Z,8.54
2019-04-04T02:47:53.631Z,8.08
2019-04-04T02:50:22.317Z,8.20
2019-04-04T02:52:50.938Z,8.31
2019-04-04T02:55:19.552Z,8.31
2019-04-04T02:57:48.220Z,7.86
2019-04-04T03:00:17.314Z,8.18
2019-04-04T03:02:45.942Z,8.29
2019-04-04T03:05:18.843Z,8.29
2019-04-04T03:07:44.989Z,8.73
2019-04-04T03:10:16.549Z,8.70
2019-04-04T03:12:44.004Z,8.52
2019-04-04T03:15:12.633Z,8.35
2019-04-04T03:17:41.283Z,6.81
2019-04-04T03:20:09.916Z,6.81
2019-04-04T03:22:38.526Z,6.41
2019-04-04T03:25:07.350Z,6.65
2019-04-04T03:27:35.997Z,6.82
2019-04-04T03:30:13.195Z,6.57
2019-04-04T03:32:37.354Z,6.58
2019-04-04T03:35:07.258Z,7.39
2019-04-04T03:37:40.569Z,7.39
2019-04-04T03:40:07.509Z,7.01
2019-04-04T03:42:36.183Z,6.52
2019-04-04T03:45:06.080Z,7.01
2019-04-04T03:47:34.693Z,7.31
2019-04-04T03:50:03.533Z,6.37
2019-04-04T03:52:32.093Z,6.87
2019-04-04T03:55:00.722Z,7.28
2019-04-04T03:57:29.399Z,7.20
2019-04-04T03:59:57.952Z,6.79
2019-04-04T04:02:26.580Z,6.25
2019-04-04T04:05:00.472Z,6.98
2019-04-04T04:07:25.701Z,7.38
2019-04-04T04:09:59.286Z,7.37
2019-04-04T04:12:24.691Z,7.72
2019-04-04T04:14:54.950Z,7.12
2019-04-04T04:17:23.863Z,7.04
2019-04-04T04:19:52.531Z,7.40
2019-04-04T04:22:21.224Z,6.84
2019-04-04T04:24:49.841Z,7.58
2019-04-04T04:27:18.594Z,7.67
2019-04-04T04:29:47.215Z,7.51
2019-04-04T04:32:15.833Z,6.75
2019-04-04T04:34:44.488Z,6.97
2019-04-04T04:37:13.035Z,6.61
2019-04-04T04:39:41.659Z,6.80
2019-04-04T04:42:10.463Z,7.05
2019-04-04T04:44:39.170Z,7.87
2019-04-04T04:47:07.785Z,7.87
2019-04-04T04:49:36.486Z,7.49
2019-04-04T04:52:05.106Z,7.49
2019-04-04T04:54:33.725Z,7.21
2019-04-04T04:57:04.030Z,7.21
2019-04-04T04:59:32.658Z,7.89
2019-04-04T05:02:01.361Z,7.68
2019-04-04T05:04:30.169Z,7.64
2019-04-04T05:06:58.742Z,7.06
2019-04-04T05:09:28.267Z,7.99
2019-04-04T05:11:57.001Z,7.99
2019-04-04T05:14:25.630Z,8.49
2019-04-04T05:16:54.249Z,7.04
2019-04-04T05:19:22.930Z,7.34
2019-04-04T05:21:51.558Z,7.92
2019-04-04T05:24:20.172Z,7.48
2019-04-04T05:26:48.836Z,7.48
2019-04-04T05:29:17.451Z,7.44
2019-04-04T05:31:46.089Z,7.44
2019-04-04T05:34:14.777Z,8.18
2019-04-04T05:36:43.397Z,8.18
2019-04-04T05:39:12.020Z,7.72
2019-04-04T05:41:40.685Z,7.98
2019-04-04T05:44:10.205Z,7.98
2019-04-04T05:46:39.009Z,8.00
2019-04-04T05:49:08.398Z,8.00
2019-04-04T05:51:37.172Z,7.70
2019-04-04T05:54:07.705Z,7.70
2019-04-04T05:56:36.225Z,7.10
2019-04-04T05:59:04.862Z,7.69
2019-04-04T06:01:35.319Z,7.99
2019-04-04T06:04:04.288Z,7.75
2019-04-04T06:06:34.027Z,8.14
2019-04-04T06:09:04.538Z,8.14
2019-04-04T06:11:33.210Z,8.08
2019-04-04T06:14:01.837Z,8.08
2019-04-04T06:16:33.053Z,8.45
2019-04-04T06:19:01.708Z,8.65
2019-04-04T06:21:30.402Z,8.65
2019-04-04T06:23:59.058Z,8.15
2019-04-04T06:26:27.776Z,8.07
2019-04-04T06:28:56.401Z,8.04
2019-04-04T06:31:26.902Z,8.04
2019-04-04T06:33:55.405Z,8.07
2019-04-04T06:36:24.023Z,8.98
2019-04-04T06:38:54.091Z,8.98
2019-04-04T06:41:23.103Z,8.07
2019-04-04T06:43:51.743Z,8.59
2019-04-04T06:46:22.772Z,7.97
2019-04-04T06:48:50.751Z,8.77
2019-04-04T06:51:19.384Z,9.24
2019-04-04T06:53:48.099Z,8.15
2019-04-04T06:56:16.816Z,8.44
2019-04-04T06:58:45.442Z,8.86
2019-04-04T07:01:14.115Z,8.41
2019-04-04T07:03:42.727Z,8.57
2019-04-04T07:06:11.359Z,9.24
2019-04-04T07:08:40.021Z,8.58
2019-04-04T07:11:20.906Z,8.79
2019-04-04T07:13:42.676Z,9.09
2019-04-04T07:16:09.386Z,8.51
2019-04-04T07:18:38.030Z,8.37
2019-04-04T07:21:06.656Z,8.80
2019-04-04T07:23:35.343Z,9.15
2019-04-04T07:26:04.796Z,9.51
2019-04-04T07:28:33.417Z,9.55
2019-04-04T07:31:02.551Z,9.09
2019-04-04T07:33:31.180Z,9.09
2019-04-04T07:35:59.815Z,8.43
2019-04-04T07:38:28.797Z,8.82
2019-04-04T07:40:57.983Z,9.30
2019-04-04T07:43:26.597Z,9.58
2019-04-04T07:45:59.683Z,9.11
2019-04-04T07:48:28.385Z,9.11
2019-04-04T07:50:58.275Z,9.71
2019-04-04T07:53:28.218Z,9.33
2019-04-04T07:55:56.781Z,9.54
2019-04-04T07:58:25.409Z,10.13
2019-04-04T08:00:54.091Z,10.12
2019-04-04T08:03:22.711Z,10.01
2019-04-04T08:05:51.359Z,10.62
2019-04-04T08:08:20.069Z,10.10
2019-04-04T08:10:48.685Z,10.85
2019-04-04T08:13:17.335Z,11.09
2019-04-04T08:15:45.989Z,10.56
2019-04-04T08:18:14.637Z,11.36
2019-04-04T08:20:43.198Z,11.70
2019-04-04T08:23:11.968Z,9.64
2019-04-04T08:25:40.644Z,9.17
2019-04-04T08:28:09.201Z,10.38
2019-04-04T08:30:37.874Z,10.73
2019-04-04T08:33:06.501Z,10.25
2019-04-04T08:35:35.128Z,10.67
2019-04-04T08:38:03.893Z,11.10
2019-04-04T08:40:32.493Z,11.02
2019-04-04T08:43:01.051Z,10.80
2019-04-04T08:45:29.794Z,10.60
2019-04-04T08:47:58.467Z,10.90
2019-04-04T08:50:27.094Z,11.68
2019-04-04T08:52:55.787Z,11.38
2019-04-04T08:55:24.389Z,10.92
2019-04-04T08:57:53.016Z,11.02
2019-04-04T09:00:21.682Z,10.84
2019-04-04T09:02:50.336Z,11.72
2019-04-04T09:05:19.050Z,12.11
2019-04-04T09:07:47.708Z,11.72
2019-04-04T09:10:16.436Z,11.87
2019-04-04T09:12:45.059Z,12.56
2019-04-04T09:15:14.128Z,12.94
2019-04-04T09:17:42.823Z,11.70
2019-04-04T09:20:11.454Z,11.80
2019-04-04T09:22:41.118Z,11.61
2019-04-04T09:25:10.673Z,12.05
2019-04-04T09:27:39.850Z,12.67
2019-04-04T09:30:09.812Z,12.29
2019-04-04T09:32:38.446Z,10.98
2019-04-04T09:35:07.963Z,12.42
2019-04-04T09:37:36.632Z,12.20
2019-04-04T09:40:08.271Z,12.03
2019-04-04T09:42:36.864Z,11.82
2019-04-04T09:45:09.919Z,12.78
2019-04-04T09:47:38.536Z,13.50
2019-04-04T09:50:09.138Z,12.76
2019-04-04T09:52:37.791Z,12.27
2019-04-04T09:55:08.970Z,13.41
2019-04-04T09:57:37.592Z,13.63
2019-04-04T10:00:09.245Z,13.59
2019-04-04T10:02:37.938Z,12.46
2019-04-04T10:05:07.175Z,13.70
2019-04-04T10:07:35.911Z,13.58
2019-04-04T10:10:09.524Z,14.60
2019-04-04T10:12:38.246Z,13.45
2019-04-04T10:15:07.414Z,13.37
2019-04-04T10:17:36.047Z,12.86
2019-04-04T10:20:06.384Z,13.22
2019-04-04T10:22:35.039Z,13.45
2019-04-04T10:25:04.171Z,14.11
2019-04-04T10:27:32.804Z,13.76
2019-04-04T10:30:01.574Z,13.92
2019-04-04T10:32:30.200Z,14.57
2019-04-04T10:34:58.840Z,13.99
2019-04-04T10:37:27.489Z,12.95
2019-04-04T10:39:56.122Z,14.06
2019-04-04T10:42:24.735Z,14.29
2019-04-04T10:44:53.401Z,14.30
2019-04-04T10:47:22.020Z,13.75
2019-04-04T10:49:50.569Z,14.63
2019-04-04T10:52:19.216Z,14.13
2019-04-04T10:54:47.777Z,13.93
2019-04-04T10:57:16.398Z,14.78
2019-04-04T10:59:45.064Z,14.19
2019-04-04T11:02:13.680Z,14.86
2019-04-04T11:04:42.306Z,14.78
2019-04-04T11:07:11.034Z,14.41
2019-04-04T11:09:42.180Z,14.37
2019-04-04T11:12:10.279Z,14.64
2019-04-04T11:14:38.925Z,14.31
2019-04-04T11:17:07.558Z,14.22
2019-04-04T11:19:36.180Z,14.02
2019-04-04T11:22:04.958Z,14.83
2019-04-04T11:24:33.577Z,14.41
2019-04-04T11:27:02.212Z,14.16
2019-04-04T11:29:30.798Z,14.00
2019-04-04T11:31:59.429Z,14.80
2019-04-04T11:34:28.053Z,14.51
2019-04-04T11:36:56.636Z,14.57
2019-04-04T11:39:25.265Z,14.87
2019-04-04T11:41:53.820Z,15.62
2019-04-04T11:44:22.499Z,13.81
2019-04-04T11:46:51.146Z,14.31
2019-04-04T11:49:19.764Z,14.64
2019-04-04T11:51:48.426Z,14.27
2019-04-04T11:54:17.055Z,14.47
2019-04-04T11:56:45.673Z,15.10
2019-04-04T11:59:14.270Z,15.15
2019-04-04T12:01:44.534Z,15.07
2019-04-04T12:04:13.150Z,15.52
2019-04-04T12:06:41.809Z,15.83
2019-04-04T12:09:10.440Z,15.05
2019-04-04T12:11:39.063Z,15.43
2019-04-04T12:14:07.714Z,15.91
2019-04-04T12:16:36.260Z,14.91
2019-04-04T12:19:04.883Z,15.33
2019-04-04T12:21:33.479Z,15.28
2019-04-04T12:24:01.955Z,15.41
2019-04-04T12:26:30.601Z,14.90
2019-04-04T12:28:59.239Z,15.74
2019-04-04T12:31:27.868Z,14.98
2019-04-04T12:33:56.498Z,15.67
2019-04-04T12:36:25.212Z,15.41
2019-04-04T12:38:53.791Z,15.85
2019-04-04T12:41:22.410Z,16.37
2019-04-04T12:43:51.095Z,16.64
2019-04-04T12:46:19.662Z,16.77
2019-04-04T12:48:48.289Z,15.56
2019-04-04T12:51:16.941Z,15.91
2019-04-04T12:53:45.487Z,15.41
2019-04-04T12:56:14.103Z,14.48
2019-04-04T12:58:42.762Z,13.88
2019-04-04T13:01:11.372Z,13.92
2019-04-04T13:03:39.931Z,13.71
2019-04-04T13:06:08.603Z,13.07
2019-04-04T13:08:37.219Z,12.82
2019-04-04T13:11:05.849Z,12.66
2019-04-04T13:13:34.522Z,12.36
2019-04-04T13:16:03.143Z,12.52
2019-04-04T13:18:31.769Z,12.72
2019-04-04T13:21:00.433Z,13.33
2019-04-04T13:23:28.989Z,13.61
2019-04-04T13:25:57.611Z,13.44
2019-04-04T13:28:26.291Z,13.34
2019-04-04T13:30:54.946Z,13.41
2019-04-04T13:33:23.531Z,13.92
2019-04-04T13:35:52.190Z,13.99
2019-04-04T13:38:20.813Z,13.84
2019-04-04T13:40:49.431Z,14.41
2019-04-04T13:43:18.107Z,14.56
2019-04-04T13:45:46.856Z,14.65
2019-04-04T13:48:15.481Z,14.62
2019-04-04T13:50:44.134Z,14.65
2019-04-04T13:53:12.694Z,14.58
2019-04-04T13:55:41.320Z,14.92
2019-04-04T13:58:09.986Z,15.20
2019-04-04T14:00:38.680Z,15.24
2019-04-04T14:03:07.377Z,15.28
2019-04-04T14:05:36.045Z,15.50
2019-04-04T14:08:04.743Z,15.54
2019-04-04T14:10:33.377Z,15.75
2019-04-04T14:13:02.048Z,15.88
2019-04-04T14:15:30.674Z,16.13
2019-04-04T14:17:59.309Z,16.11
2019-04-04T14:20:27.953Z,15.99
2019-04-04T14:22:56.575Z,16.23
2019-04-04T14:25:25.205Z,16.35
2019-04-04T14:27:53.857Z,16.50
2019-04-04T14:30:22.591Z,15.93
2019-04-04T14:32:51.213Z,16.16
2019-04-04T14:35:19.886Z,16.21
2019-04-04T14:37:48.524Z,16.06
2019-04-04T14:40:17.129Z,15.76
2019-04-04T14:42:45.885Z,15.40
2019-04-04T14:45:14.509Z,14.89
2019-04-04T14:47:43.133Z,14.27
2019-04-04T14:50:11.786Z,14.74
2019-04-04T14:52:40.402Z,15.25
2019-04-04T14:55:09.021Z,15.62
2019-04-04T14:57:37.679Z,15.33
2019-04-04T15:00:09.957Z,14.71
2019-04-04T15:02:38.582Z,15.41
2019-04-04T15:05:07.251Z,15.69
2019-04-04T15:07:35.867Z,15.98
2019-04-04T15:10:05.090Z,15.60
2019-04-04T15:12:33.747Z,15.43
2019-04-04T15:15:02.428Z,15.39
2019-04-04T15:17:31.072Z,15.03
2019-04-04T15:19:59.727Z,15.48
2019-04-04T15:22:28.342Z,15.65
2019-04-04T15:24:56.966Z,15.73
2019-04-04T15:27:25.624Z,15.27
2019-04-04T15:29:54.242Z,15.05
2019-04-04T15:32:22.875Z,15.10
2019-04-04T15:34:51.531Z,14.74
2019-04-04T15:37:20.214Z,14.72
2019-04-04T15:39:48.835Z,15.52
2019-04-04T15:42:17.556Z,14.56
2019-04-04T15:44:46.168Z,14.93
2019-04-04T15:47:14.796Z,15.63
2019-04-04T15:49:43.383Z,15.68
2019-04-04T15:52:12.001Z,15.01
2019-04-04T15:54:40.626Z,15.19
2019-04-04T15:57:09.285Z,15.11
2019-04-04T15:59:37.912Z,15.43
2019-04-04T16:02:06.614Z,14.68
2019-04-04T16:04:35.281Z,14.81
2019-04-04T16:07:05.480Z,14.79
2019-04-04T16:09:34.037Z,14.64
2019-04-04T16:12:02.695Z,14.86
2019-04-04T16:14:31.320Z,14.97
2019-04-04T16:16:59.873Z,15.02
2019-04-04T16:19:28.536Z,14.54
2019-04-04T16:21:57.173Z,14.67
2019-04-04T16:24:25.793Z,14.86
2019-04-04T16:26:54.461Z,14.57
2019-04-04T16:29:23.091Z,14.36
2019-04-04T16:31:51.719Z,14.65
2019-04-04T16:34:20.383Z,14.77
2019-04-04T16:36:49.025Z,14.89
2019-04-04T16:39:17.672Z,13.75
2019-04-04T16:41:46.406Z,14.35
2019-04-04T16:44:15.131Z,14.68
2019-04-04T16:46:43.749Z,14.76
2019-04-04T16:49:12.433Z,14.39
2019-04-04T16:51:41.075Z,14.07
2019-04-04T16:54:09.709Z,13.53
2019-04-04T16:56:38.378Z,13.10
2019-04-04T16:59:07.007Z,13.68
2019-04-04T17:01:35.638Z,13.86
2019-04-04T17:04:04.401Z,14.18
2019-04-04T17:06:33.026Z,13.73
2019-04-04T17:09:01.659Z,13.80
2019-04-04T17:11:30.320Z,13.44
2019-04-04T17:13:58.952Z,13.38
2019-04-04T17:16:27.589Z,12.90
2019-04-04T17:18:56.262Z,13.20
2019-04-04T17:21:24.887Z,12.83
2019-04-04T17:23:53.516Z,12.85
2019-04-04T17:26:22.179Z,13.11
2019-04-04T17:28:51.382Z,13.57
2019-04-04T17:31:20.223Z,13.53
2019-04-04T17:33:49.399Z,13.42
2019-04-04T17:36:20.542Z,13.10
2019-04-04T17:38:48.441Z,13.11
2019-04-04T17:41:17.477Z,13.34
2019-04-04T17:43:46.204Z,13.30
2019-04-04T17:46:14.839Z,13.11
2019-04-04T17:48:43.780Z,12.77
2019-04-04T17:51:12.470Z,12.87
2019-04-04T17:53:41.112Z,13.11
2019-04-04T17:56:11.092Z,13.19
2019-04-04T17:58:39.703Z,13.44
2019-04-04T18:01:09.978Z,13.39
2019-04-04T18:03:38.644Z,13.36
2019-04-04T18:06:07.270Z,12.77
2019-04-04T18:08:35.906Z,12.97
2019-04-04T18:11:04.833Z,12.97
2019-04-04T18:13:33.456Z,12.78
2019-04-04T18:16:02.080Z,12.84
2019-04-04T18:18:30.750Z,12.70
2019-04-04T18:20:59.378Z,12.82
2019-04-04T18:23:28.015Z,12.37
2019-04-04T18:25:56.691Z,12.83
2019-04-04T18:28:25.265Z,12.16
2019-04-04T18:30:53.903Z,12.51
2019-04-04T18:33:22.917Z,12.36
2019-04-04T18:35:52.050Z,12.41
2019-04-04T18:38:20.710Z,11.95
2019-04-04T18:40:49.488Z,12.16
2019-04-04T18:43:18.315Z,12.55
2019-04-04T18:45:46.948Z,12.43
2019-04-04T18:48:15.627Z,12.17
2019-04-04T18:50:44.255Z,12.68
2019-04-04T18:53:12.887Z,12.75
2019-04-04T18:55:41.569Z,12.76
2019-04-04T18:58:10.210Z,12.82
2019-04-04T19:00:38.838Z,12.55
2019-04-04T19:03:07.505Z,11.60
2019-04-04T19:05:36.146Z,10.96
2019-04-04T19:08:04.778Z,11.20
2019-04-04T19:10:33.466Z,12.10
2019-04-04T19:13:05.645Z,12.34
2019-04-04T19:15:32.444Z,11.44
2019-04-04T19:18:01.046Z,12.01
2019-04-04T19:20:29.661Z,11.95
2019-04-04T19:22:58.293Z,11.97
2019-04-04T19:25:26.947Z,11.92
2019-04-04T19:27:55.562Z,12.01
2019-04-04T19:30:24.208Z,12.08
2019-04-04T19:32:52.880Z,12.23
2019-04-04T19:35:21.505Z,11.25
2019-04-04T19:37:59.945Z,11.56
2019-04-04T19:40:21.342Z,11.65
2019-04-04T19:42:49.967Z,12.10
2019-04-04T19:45:21.312Z,10.80
2019-04-04T19:47:50.135Z,11.46
2019-04-04T19:50:18.765Z,11.89
2019-04-04T19:52:47.397Z,12.15
2019-04-04T19:55:16.073Z,12.10
2019-04-04T19:57:44.707Z,12.22
2019-04-04T20:00:13.824Z,11.62
2019-04-04T20:02:43.901Z,11.76
2019-04-04T20:05:12.840Z,11.78
2019-04-04T20:07:41.539Z,11.75
2019-04-04T20:10:10.397Z,11.91
2019-04-04T20:12:39.013Z,11.77
2019-04-04T20:15:08.134Z,11.72
2019-04-04T20:17:36.803Z,11.57
2019-04-04T20:20:09.062Z,11.22
2019-04-04T20:22:37.671Z,11.40
2019-04-04T20:25:07.144Z,10.84
2019-04-04T20:27:35.704Z,9.84
2019-04-04T20:30:07.305Z,10.54
2019-04-04T20:32:35.975Z,10.79
2019-04-04T20:35:06.506Z,10.82
2019-04-04T20:37:35.134Z,11.34
2019-04-04T20:40:05.834Z,11.54
2019-04-04T20:42:34.386Z,11.58
2019-04-04T20:45:03.006Z,11.75
2019-04-04T20:47:33.781Z,11.17
2019-04-04T20:50:03.541Z,11.19
2019-04-04T20:52:32.076Z,11.36
2019-04-04T20:55:00.676Z,11.55
2019-04-04T20:57:29.227Z,11.61
2019-04-04T20:59:57.779Z,11.49
2019-04-04T21:02:26.425Z,11.63
2019-04-04T21:04:55.050Z,11.73
2019-04-04T21:07:23.676Z,11.70
2019-04-04T21:09:52.277Z,11.84
2019-04-04T21:12:20.821Z,11.45
2019-04-04T21:14:49.584Z,11.42
2019-04-04T21:17:18.099Z,11.03
2019-04-04T21:19:46.729Z,10.91
2019-04-04T21:22:27.014Z,9.88
2019-04-04T21:24:45.594Z,10.17
2019-04-04T21:27:14.229Z,10.34
2019-04-04T21:29:42.861Z,10.46
2019-04-04T21:32:11.514Z,10.74
2019-04-04T21:34:40.082Z,11.15
2019-04-04T21:37:08.702Z,10.67
2019-04-04T21:39:37.378Z,11.12
2019-04-04T21:42:06.838Z,11.09
2019-04-04T21:44:35.470Z,11.18
2019-04-04T21:47:04.128Z,10.29
2019-04-04T21:49:32.756Z,10.62
2019-04-04T21:52:01.391Z,10.93
2019-04-04T21:54:30.042Z,11.18
2019-04-04T21:56:58.669Z,11.22
2019-04-04T21:59:27.250Z,11.13
2019-04-04T22:01:55.969Z,11.20
2019-04-04T22:04:24.738Z,11.41
2019-04-04T22:06:53.433Z,11.33
2019-04-04T22:09:22.171Z,10.21
2019-04-04T22:11:50.798Z,10.77
2019-04-04T22:14:21.983Z,10.46
2019-04-04T22:16:49.722Z,10.04
2019-04-04T22:19:18.332Z,9.79
2019-04-04T22:21:46.957Z,10.38
2019-04-04T22:24:15.619Z,10.64
2019-04-04T22:26:44.242Z,10.80
2019-04-04T22:29:12.716Z,10.88
2019-04-04T22:31:41.366Z,10.88
2019-04-04T22:34:09.916Z,10.85
2019-04-04T22:36:38.543Z,10.98
2019-04-04T22:39:08.294Z,11.11
2019-04-04T22:41:36.863Z,11.21
2019-04-04T22:44:06.348Z,11.15
2019-04-04T22:46:35.001Z,11.01
2019-04-04T22:49:03.619Z,10.58
2019-04-04T22:51:32.245Z,10.22
2019-04-04T22:54:00.827Z,9.99
2019-04-04T22:56:29.447Z,10.37
2019-04-04T22:58:58.172Z,10.67
2019-04-04T23:01:29.186Z,10.57
2019-04-04T23:03:57.172Z,10.10
2019-04-04T23:06:25.780Z,9.70
2019-04-04T23:08:54.478Z,10.00
2019-04-04T23:11:23.095Z,10.00
2019-04-04T23:13:51.720Z,10.15
2019-04-04T23:16:20.393Z,10.58
2019-04-04T23:18:49.086Z,10.55
2019-04-04T23:21:17.716Z,10.38
2019-04-04T23:23:46.445Z,10.36
2019-04-04T23:26:15.080Z,10.24
2019-04-04T23:28:43.706Z,10.24
2019-04-04T23:31:12.366Z,10.38
2019-04-04T23:33:40.990Z,10.45
2019-04-04T23:36:09.609Z,10.50
2019-04-04T23:38:38.276Z,10.67
2019-04-04T23:41:06.903Z,10.24
2019-04-04T23:43:35.463Z,10.44
2019-04-04T23:46:04.120Z,10.04
2019-04-04T23:48:32.747Z,10.09
2019-04-04T23:51:01.413Z,10.09
2019-04-04T23:53:30.041Z,10.29
2019-04-04T23:55:58.664Z,10.43
2019-04-04T23:58:27.295Z,10.43
